sensor_id;sensor_type;location;lat;lon;timestamp;temperature;humidity
25300;DHT22;13241;51.208;4.432;2022-12-07T00:01:37;5.80;99.90
25300;DHT22;13241;51.208;4.432;2022-12-07T00:04:09;5.80;99.90
25300;DHT22;13241;51.208;4.432;2022-12-07T00:06:41;5.80;99.90
25300;DHT22;13241;51.208;4.432;2022-12-07T00:09:12;5.70;99.90
25300;DHT22;13241;51.208;4.432;2022-12-07T00:11:40;5.70;99.90
25300;DHT22;13241;51.208;4.432;2022-12-07T00:14:12;5.70;99.90
25300;DHT22;13241;51.208;4.432;2022-12-07T00:16:40;5.80;99.90
25300;DHT22;13241;51.208;4.432;2022-12-07T00:19:11;5.80;99.90
25300;DHT22;13241;51.208;4.432;2022-12-07T00:21:40;5.80;99.90
25300;DHT22;13241;51.208;4.432;2022-12-07T00:24:07;5.80;99.90
25300;DHT22;13241;51.208;4.432;2022-12-07T00:26:38;5.70;99.90
25300;DHT22;13241;51.208;4.432;2022-12-07T00:29:19;5.70;99.90
25300;DHT22;13241;51.208;4.432;2022-12-07T00:31:46;5.70;99.90
25300;DHT22;13241;51.208;4.432;2022-12-07T00:34:18;5.80;99.90
25300;DHT22;13241;51.208;4.432;2022-12-07T00:36:46;5.70;99.90
25300;DHT22;13241;51.208;4.432;2022-12-07T00:39:14;5.80;99.90
25300;DHT22;13241;51.208;4.432;2022-12-07T00:41:41;5.70;99.90
25300;DHT22;13241;51.208;4.432;2022-12-07T00:44:08;5.60;99.90
25300;DHT22;13241;51.208;4.432;2022-12-07T00:46:35;5.60;99.90
25300;DHT22;13241;51.208;4.432;2022-12-07T00:49:02;5.70;99.90
25300;DHT22;13241;51.208;4.432;2022-12-07T00:51:29;5.80;99.90
25300;DHT22;13241;51.208;4.432;2022-12-07T00:53:56;5.90;99.90
25300;DHT22;13241;51.208;4.432;2022-12-07T00:56:26;6.10;99.90
25300;DHT22;13241;51.208;4.432;2022-12-07T00:58:59;6.20;99.90
25300;DHT22;13241;51.208;4.432;2022-12-07T01:01:28;6.20;99.90
25300;DHT22;13241;51.208;4.432;2022-12-07T01:03:59;5.90;99.90
25300;DHT22;13241;51.208;4.432;2022-12-07T01:06:30;6.20;99.90
25300;DHT22;13241;51.208;4.432;2022-12-07T01:08:58;6.10;99.90
25300;DHT22;13241;51.208;4.432;2022-12-07T01:11:27;6.00;99.90
25300;DHT22;13241;51.208;4.432;2022-12-07T01:13:58;6.00;99.90
25300;DHT22;13241;51.208;4.432;2022-12-07T01:16:27;5.80;99.90
25300;DHT22;13241;51.208;4.432;2022-12-07T01:18:55;5.70;99.90
25300;DHT22;13241;51.208;4.432;2022-12-07T01:21:31;5.70;99.90
25300;DHT22;13241;51.208;4.432;2022-12-07T01:24:06;5.60;99.90
25300;DHT22;13241;51.208;4.432;2022-12-07T01:26:34;5.50;99.90
25300;DHT22;13241;51.208;4.432;2022-12-07T01:29:01;5.50;99.90
25300;DHT22;13241;51.208;4.432;2022-12-07T01:31:28;5.40;99.90
25300;DHT22;13241;51.208;4.432;2022-12-07T01:33:58;5.40;99.90
25300;DHT22;13241;51.208;4.432;2022-12-07T01:36:27;5.40;99.90
25300;DHT22;13241;51.208;4.432;2022-12-07T01:38:58;5.40;99.90
25300;DHT22;13241;51.208;4.432;2022-12-07T01:41:32;5.40;99.90
25300;DHT22;13241;51.208;4.432;2022-12-07T01:49:38;5.50;99.90
25300;DHT22;13241;51.208;4.432;2022-12-07T01:54:47;5.40;99.90
25300;DHT22;13241;51.208;4.432;2022-12-07T01:57:17;5.40;99.90
25300;DHT22;13241;51.208;4.432;2022-12-07T01:59:46;5.40;99.90
25300;DHT22;13241;51.208;4.432;2022-12-07T02:02:20;5.30;99.90
25300;DHT22;13241;51.208;4.432;2022-12-07T02:04:51;5.30;99.90
25300;DHT22;13241;51.208;4.432;2022-12-07T02:07:20;5.40;99.90
25300;DHT22;13241;51.208;4.432;2022-12-07T02:09:47;5.40;99.90
25300;DHT22;13241;51.208;4.432;2022-12-07T02:12:20;5.50;99.90
25300;DHT22;13241;51.208;4.432;2022-12-07T02:14:47;5.60;99.90
25300;DHT22;13241;51.208;4.432;2022-12-07T02:17:28;5.70;99.90
25300;DHT22;13241;51.208;4.432;2022-12-07T02:20:13;5.80;99.90
25300;DHT22;13241;51.208;4.432;2022-12-07T02:25:45;6.00;99.90
25300;DHT22;13241;51.208;4.432;2022-12-07T02:31:11;6.20;99.90
25300;DHT22;13241;51.208;4.432;2022-12-07T02:33:57;6.20;99.90
25300;DHT22;13241;51.208;4.432;2022-12-07T02:36:30;6.20;99.90
25300;DHT22;13241;51.208;4.432;2022-12-07T02:39:03;6.20;99.90
25300;DHT22;13241;51.208;4.432;2022-12-07T02:41:37;6.20;99.90
25300;DHT22;13241;51.208;4.432;2022-12-07T02:44:20;6.20;99.90
25300;DHT22;13241;51.208;4.432;2022-12-07T02:46:57;6.00;99.90
25300;DHT22;13241;51.208;4.432;2022-12-07T02:49:27;6.20;99.90
25300;DHT22;13241;51.208;4.432;2022-12-07T02:51:54;6.20;99.90
25300;DHT22;13241;51.208;4.432;2022-12-07T02:54:23;6.20;99.90
25300;DHT22;13241;51.208;4.432;2022-12-07T02:57:02;6.20;99.90
25300;DHT22;13241;51.208;4.432;2022-12-07T03:08:33;6.20;99.90
25300;DHT22;13241;51.208;4.432;2022-12-07T03:11:13;6.10;99.90
25300;DHT22;13241;51.208;4.432;2022-12-07T03:16:21;6.00;99.90
25300;DHT22;13241;51.208;4.432;2022-12-07T03:18:55;6.00;99.90
25300;DHT22;13241;51.208;4.432;2022-12-07T03:21:34;6.00;99.90
25300;DHT22;13241;51.208;4.432;2022-12-07T03:24:24;6.10;99.90
25300;DHT22;13241;51.208;4.432;2022-12-07T03:26:58;5.80;99.90
25300;DHT22;13241;51.208;4.432;2022-12-07T03:29:41;5.70;99.90
25300;DHT22;13241;51.208;4.432;2022-12-07T03:32:25;5.60;99.90
25300;DHT22;13241;51.208;4.432;2022-12-07T03:34:58;5.60;99.90
25300;DHT22;13241;51.208;4.432;2022-12-07T03:37:35;5.50;99.90
25300;DHT22;13241;51.208;4.432;2022-12-07T03:42:39;5.50;99.90
25300;DHT22;13241;51.208;4.432;2022-12-07T03:45:07;5.50;99.90
25300;DHT22;13241;51.208;4.432;2022-12-07T03:47:54;5.70;99.90
25300;DHT22;13241;51.208;4.432;2022-12-07T03:50:30;5.70;99.90
25300;DHT22;13241;51.208;4.432;2022-12-07T03:56:01;5.70;99.90
25300;DHT22;13241;51.208;4.432;2022-12-07T03:58:29;5.60;99.90
25300;DHT22;13241;51.208;4.432;2022-12-07T04:00:57;5.50;99.90
25300;DHT22;13241;51.208;4.432;2022-12-07T04:03:23;5.50;99.90
25300;DHT22;13241;51.208;4.432;2022-12-07T04:05:51;5.50;99.90
25300;DHT22;13241;51.208;4.432;2022-12-07T04:08:18;5.40;99.90
25300;DHT22;13241;51.208;4.432;2022-12-07T04:10:45;5.60;99.90
25300;DHT22;13241;51.208;4.432;2022-12-07T04:13:12;5.40;99.90
25300;DHT22;13241;51.208;4.432;2022-12-07T04:15:39;5.70;99.90
25300;DHT22;13241;51.208;4.432;2022-12-07T04:18:06;5.70;99.90
25300;DHT22;13241;51.208;4.432;2022-12-07T04:20:33;5.40;99.90
25300;DHT22;13241;51.208;4.432;2022-12-07T04:23:02;5.40;99.90
25300;DHT22;13241;51.208;4.432;2022-12-07T04:25:29;5.40;99.90
25300;DHT22;13241;51.208;4.432;2022-12-07T04:27:57;5.40;99.90
25300;DHT22;13241;51.208;4.432;2022-12-07T04:30:24;5.50;99.90
25300;DHT22;13241;51.208;4.432;2022-12-07T04:32:53;5.60;99.90
25300;DHT22;13241;51.208;4.432;2022-12-07T04:35:20;5.60;99.90
25300;DHT22;13241;51.208;4.432;2022-12-07T04:37:48;5.50;99.90
25300;DHT22;13241;51.208;4.432;2022-12-07T04:40:16;5.70;99.90
25300;DHT22;13241;51.208;4.432;2022-12-07T04:42:43;5.60;99.90
25300;DHT22;13241;51.208;4.432;2022-12-07T04:45:11;5.60;99.90
25300;DHT22;13241;51.208;4.432;2022-12-07T04:47:39;5.70;99.90
25300;DHT22;13241;51.208;4.432;2022-12-07T04:50:07;5.80;99.90
25300;DHT22;13241;51.208;4.432;2022-12-07T04:52:33;5.80;99.90
25300;DHT22;13241;51.208;4.432;2022-12-07T04:55:00;5.80;99.90
25300;DHT22;13241;51.208;4.432;2022-12-07T04:57:27;5.80;99.90
25300;DHT22;13241;51.208;4.432;2022-12-07T04:59:57;5.90;99.90
25300;DHT22;13241;51.208;4.432;2022-12-07T05:02:25;5.90;99.90
25300;DHT22;13241;51.208;4.432;2022-12-07T05:04:52;6.00;99.90
25300;DHT22;13241;51.208;4.432;2022-12-07T05:07:18;6.00;99.90
25300;DHT22;13241;51.208;4.432;2022-12-07T05:09:45;6.20;99.90
25300;DHT22;13241;51.208;4.432;2022-12-07T05:12:12;6.10;99.90
25300;DHT22;13241;51.208;4.432;2022-12-07T05:14:39;6.10;99.90
25300;DHT22;13241;51.208;4.432;2022-12-07T05:17:06;6.10;99.90
25300;DHT22;13241;51.208;4.432;2022-12-07T05:19:36;6.10;99.90
25300;DHT22;13241;51.208;4.432;2022-12-07T05:22:03;6.00;99.90
25300;DHT22;13241;51.208;4.432;2022-12-07T05:24:30;6.00;99.90
25300;DHT22;13241;51.208;4.432;2022-12-07T05:26:57;6.00;99.90
25300;DHT22;13241;51.208;4.432;2022-12-07T05:29:24;6.00;99.90
25300;DHT22;13241;51.208;4.432;2022-12-07T05:31:50;6.10;99.90
25300;DHT22;13241;51.208;4.432;2022-12-07T05:34:17;6.20;99.90
25300;DHT22;13241;51.208;4.432;2022-12-07T05:36:44;6.20;99.90
25300;DHT22;13241;51.208;4.432;2022-12-07T05:39:11;6.20;99.90
25300;DHT22;13241;51.208;4.432;2022-12-07T05:41:38;6.10;99.90
25300;DHT22;13241;51.208;4.432;2022-12-07T05:44:23;6.10;99.90
25300;DHT22;13241;51.208;4.432;2022-12-07T05:46:50;6.10;99.90
25300;DHT22;13241;51.208;4.432;2022-12-07T05:49:17;6.10;99.90
25300;DHT22;13241;51.208;4.432;2022-12-07T05:51:44;6.10;99.90
25300;DHT22;13241;51.208;4.432;2022-12-07T05:54:11;6.10;99.90
25300;DHT22;13241;51.208;4.432;2022-12-07T05:56:38;6.10;99.90
25300;DHT22;13241;51.208;4.432;2022-12-07T05:59:05;6.20;99.90
25300;DHT22;13241;51.208;4.432;2022-12-07T06:01:58;6.20;99.90
25300;DHT22;13241;51.208;4.432;2022-12-07T06:04:28;6.20;99.90
25300;DHT22;13241;51.208;4.432;2022-12-07T06:06:56;6.30;99.90
25300;DHT22;13241;51.208;4.432;2022-12-07T06:09:24;6.40;99.90
25300;DHT22;13241;51.208;4.432;2022-12-07T06:11:52;6.40;99.90
25300;DHT22;13241;51.208;4.432;2022-12-07T06:14:37;6.60;99.90
25300;DHT22;13241;51.208;4.432;2022-12-07T06:17:05;6.50;99.90
25300;DHT22;13241;51.208;4.432;2022-12-07T06:19:32;6.50;99.90
25300;DHT22;13241;51.208;4.432;2022-12-07T06:21:59;6.40;99.90
25300;DHT22;13241;51.208;4.432;2022-12-07T06:24:26;6.50;99.90
25300;DHT22;13241;51.208;4.432;2022-12-07T06:26:53;6.50;99.90
25300;DHT22;13241;51.208;4.432;2022-12-07T06:29:19;6.50;99.90
25300;DHT22;13241;51.208;4.432;2022-12-07T06:31:47;6.50;99.90
25300;DHT22;13241;51.208;4.432;2022-12-07T06:34:18;6.40;99.90
25300;DHT22;13241;51.208;4.432;2022-12-07T06:36:45;6.40;99.90
25300;DHT22;13241;51.208;4.432;2022-12-07T06:39:28;6.30;99.90
25300;DHT22;13241;51.208;4.432;2022-12-07T06:41:56;6.30;99.90
25300;DHT22;13241;51.208;4.432;2022-12-07T06:44:24;6.20;99.90
25300;DHT22;13241;51.208;4.432;2022-12-07T06:46:51;6.10;99.90
25300;DHT22;13241;51.208;4.432;2022-12-07T06:49:38;6.00;99.90
25300;DHT22;13241;51.208;4.432;2022-12-07T06:52:05;6.00;99.90
25300;DHT22;13241;51.208;4.432;2022-12-07T06:54:32;5.70;99.90
25300;DHT22;13241;51.208;4.432;2022-12-07T06:57:01;5.60;99.90
25300;DHT22;13241;51.208;4.432;2022-12-07T06:59:28;5.60;99.90
25300;DHT22;13241;51.208;4.432;2022-12-07T07:01:55;5.50;99.90
25300;DHT22;13241;51.208;4.432;2022-12-07T07:04:22;5.40;99.90
25300;DHT22;13241;51.208;4.432;2022-12-07T07:06:52;5.40;99.90
25300;DHT22;13241;51.208;4.432;2022-12-07T07:09:26;5.30;99.90
25300;DHT22;13241;51.208;4.432;2022-12-07T07:11:53;5.30;99.90
25300;DHT22;13241;51.208;4.432;2022-12-07T07:14:19;5.30;99.90
25300;DHT22;13241;51.208;4.432;2022-12-07T07:16:48;5.40;99.90
25300;DHT22;13241;51.208;4.432;2022-12-07T07:19:14;5.50;99.90
25300;DHT22;13241;51.208;4.432;2022-12-07T07:21:41;5.60;99.90
25300;DHT22;13241;51.208;4.432;2022-12-07T07:24:09;5.50;99.90
25300;DHT22;13241;51.208;4.432;2022-12-07T07:26:37;5.60;99.90
25300;DHT22;13241;51.208;4.432;2022-12-07T07:29:04;5.80;99.90
25300;DHT22;13241;51.208;4.432;2022-12-07T07:31:30;5.50;99.90
25300;DHT22;13241;51.208;4.432;2022-12-07T07:33:57;5.50;99.90
25300;DHT22;13241;51.208;4.432;2022-12-07T07:36:25;5.60;99.90
25300;DHT22;13241;51.208;4.432;2022-12-07T07:38:52;5.60;99.90
25300;DHT22;13241;51.208;4.432;2022-12-07T07:41:19;5.40;99.90
25300;DHT22;13241;51.208;4.432;2022-12-07T07:43:46;5.40;99.90
25300;DHT22;13241;51.208;4.432;2022-12-07T07:46:13;5.40;99.90
25300;DHT22;13241;51.208;4.432;2022-12-07T07:48:40;5.50;99.90
25300;DHT22;13241;51.208;4.432;2022-12-07T07:51:07;5.30;99.90
25300;DHT22;13241;51.208;4.432;2022-12-07T07:53:35;5.30;99.90
25300;DHT22;13241;51.208;4.432;2022-12-07T07:56:04;5.40;99.90
25300;DHT22;13241;51.208;4.432;2022-12-07T07:58:32;5.30;99.90
25300;DHT22;13241;51.208;4.432;2022-12-07T08:01:06;5.50;99.90
25300;DHT22;13241;51.208;4.432;2022-12-07T08:03:35;5.80;99.90
25300;DHT22;13241;51.208;4.432;2022-12-07T08:06:03;5.80;99.90
25300;DHT22;13241;51.208;4.432;2022-12-07T08:08:30;5.90;99.90
25300;DHT22;13241;51.208;4.432;2022-12-07T08:10:57;6.00;99.90
25300;DHT22;13241;51.208;4.432;2022-12-07T08:13:31;6.20;99.90
25300;DHT22;13241;51.208;4.432;2022-12-07T08:16:05;6.20;99.90
25300;DHT22;13241;51.208;4.432;2022-12-07T08:18:38;6.40;99.90
25300;DHT22;13241;51.208;4.432;2022-12-07T08:21:14;6.40;99.90
25300;DHT22;13241;51.208;4.432;2022-12-07T08:23:42;6.40;99.90
25300;DHT22;13241;51.208;4.432;2022-12-07T08:26:11;6.40;99.90
25300;DHT22;13241;51.208;4.432;2022-12-07T08:28:40;6.40;99.90
25300;DHT22;13241;51.208;4.432;2022-12-07T08:31:13;6.50;99.90
25300;DHT22;13241;51.208;4.432;2022-12-07T08:33:41;6.40;99.90
25300;DHT22;13241;51.208;4.432;2022-12-07T08:36:10;6.40;99.90
25300;DHT22;13241;51.208;4.432;2022-12-07T08:38:39;6.30;99.90
25300;DHT22;13241;51.208;4.432;2022-12-07T08:41:07;6.30;99.90
25300;DHT22;13241;51.208;4.432;2022-12-07T08:43:36;6.30;99.90
25300;DHT22;13241;51.208;4.432;2022-12-07T08:46:17;6.40;99.90
25300;DHT22;13241;51.208;4.432;2022-12-07T08:49:01;6.40;99.90
25300;DHT22;13241;51.208;4.432;2022-12-07T08:51:30;6.40;99.90
25300;DHT22;13241;51.208;4.432;2022-12-07T08:54:01;6.50;99.90
25300;DHT22;13241;51.208;4.432;2022-12-07T08:56:29;6.60;99.90
25300;DHT22;13241;51.208;4.432;2022-12-07T08:58:57;6.60;99.90
25300;DHT22;13241;51.208;4.432;2022-12-07T09:01:24;6.60;99.90
25300;DHT22;13241;51.208;4.432;2022-12-07T09:03:51;6.80;99.90
25300;DHT22;13241;51.208;4.432;2022-12-07T09:06:18;7.00;99.90
25300;DHT22;13241;51.208;4.432;2022-12-07T09:08:51;7.20;99.90
25300;DHT22;13241;51.208;4.432;2022-12-07T09:11:20;7.30;99.90
25300;DHT22;13241;51.208;4.432;2022-12-07T09:13:54;7.30;99.90
25300;DHT22;13241;51.208;4.432;2022-12-07T09:16:21;7.30;99.90
25300;DHT22;13241;51.208;4.432;2022-12-07T09:18:48;7.20;99.90
25300;DHT22;13241;51.208;4.432;2022-12-07T09:21:14;7.00;99.90
25300;DHT22;13241;51.208;4.432;2022-12-07T09:23:42;7.00;99.90
25300;DHT22;13241;51.208;4.432;2022-12-07T09:26:09;6.90;99.90
25300;DHT22;13241;51.208;4.432;2022-12-07T09:28:37;6.90;99.90
25300;DHT22;13241;51.208;4.432;2022-12-07T09:31:04;7.10;99.90
25300;DHT22;13241;51.208;4.432;2022-12-07T09:33:59;7.40;99.90
25300;DHT22;13241;51.208;4.432;2022-12-07T09:36:28;8.30;99.90
25300;DHT22;13241;51.208;4.432;2022-12-07T09:38:55;8.20;99.90
25300;DHT22;13241;51.208;4.432;2022-12-07T09:41:23;8.40;99.90
25300;DHT22;13241;51.208;4.432;2022-12-07T09:43:51;8.30;99.90
25300;DHT22;13241;51.208;4.432;2022-12-07T09:46:20;8.20;99.90
25300;DHT22;13241;51.208;4.432;2022-12-07T09:48:50;8.10;99.90
25300;DHT22;13241;51.208;4.432;2022-12-07T09:51:32;7.90;99.90
25300;DHT22;13241;51.208;4.432;2022-12-07T09:53:59;7.80;99.90
25300;DHT22;13241;51.208;4.432;2022-12-07T09:56:29;7.60;99.90
25300;DHT22;13241;51.208;4.432;2022-12-07T09:59:01;7.50;99.90
25300;DHT22;13241;51.208;4.432;2022-12-07T10:01:31;7.40;99.90
25300;DHT22;13241;51.208;4.432;2022-12-07T10:04:16;7.40;99.90
25300;DHT22;13241;51.208;4.432;2022-12-07T10:06:44;7.50;99.90
25300;DHT22;13241;51.208;4.432;2022-12-07T10:09:17;7.70;99.90
25300;DHT22;13241;51.208;4.432;2022-12-07T10:12:05;7.90;99.90
25300;DHT22;13241;51.208;4.432;2022-12-07T10:14:34;8.10;99.90
25300;DHT22;13241;51.208;4.432;2022-12-07T10:20:18;8.50;99.90
25300;DHT22;13241;51.208;4.432;2022-12-07T10:23:00;8.70;99.90
25300;DHT22;13241;51.208;4.432;2022-12-07T10:25:30;8.80;99.90
25300;DHT22;13241;51.208;4.432;2022-12-07T10:30:48;8.70;99.90
25300;DHT22;13241;51.208;4.432;2022-12-07T10:33:36;8.70;99.90
25300;DHT22;13241;51.208;4.432;2022-12-07T10:36:26;8.70;99.90
25300;DHT22;13241;51.208;4.432;2022-12-07T10:39:00;8.60;99.90
25300;DHT22;13241;51.208;4.432;2022-12-07T10:41:27;8.40;99.90
25300;DHT22;13241;51.208;4.432;2022-12-07T10:43:56;8.50;99.90
25300;DHT22;13241;51.208;4.432;2022-12-07T10:52:34;8.30;99.90
25300;DHT22;13241;51.208;4.432;2022-12-07T10:55:11;8.30;99.90
25300;DHT22;13241;51.208;4.432;2022-12-07T10:58:13;8.30;99.90
25300;DHT22;13241;51.208;4.432;2022-12-07T11:03:24;8.30;99.90
25300;DHT22;13241;51.208;4.432;2022-12-07T11:09:10;8.60;99.90
25300;DHT22;13241;51.208;4.432;2022-12-07T11:11:57;8.70;99.90
25300;DHT22;13241;51.208;4.432;2022-12-07T11:14:41;8.70;99.90
25300;DHT22;13241;51.208;4.432;2022-12-07T11:17:20;8.70;99.90
25300;DHT22;13241;51.208;4.432;2022-12-07T11:23:04;8.80;99.90
25300;DHT22;13241;51.208;4.432;2022-12-07T11:25:36;8.80;99.90
25300;DHT22;13241;51.208;4.432;2022-12-07T11:36:37;8.80;99.90
25300;DHT22;13241;51.208;4.432;2022-12-07T11:38:59;8.90;99.90
25300;DHT22;13241;51.208;4.432;2022-12-07T11:41:31;8.70;99.90
25300;DHT22;13241;51.208;4.432;2022-12-07T11:52:42;9.00;99.90
25300;DHT22;13241;51.208;4.432;2022-12-07T11:55:21;9.10;99.90
25300;DHT22;13241;51.208;4.432;2022-12-07T11:57:52;9.20;99.90
25300;DHT22;13241;51.208;4.432;2022-12-07T12:00:22;9.00;99.90
25300;DHT22;13241;51.208;4.432;2022-12-07T12:02:58;8.80;99.90
25300;DHT22;13241;51.208;4.432;2022-12-07T12:05:27;8.70;99.90
25300;DHT22;13241;51.208;4.432;2022-12-07T12:08:16;8.70;99.90
25300;DHT22;13241;51.208;4.432;2022-12-07T12:14:15;8.60;99.90
25300;DHT22;13241;51.208;4.432;2022-12-07T12:20:19;8.30;99.90
25300;DHT22;13241;51.208;4.432;2022-12-07T12:22:55;8.20;99.90
25300;DHT22;13241;51.208;4.432;2022-12-07T12:25:30;8.20;99.90
25300;DHT22;13241;51.208;4.432;2022-12-07T12:28:03;8.20;99.90
25300;DHT22;13241;51.208;4.432;2022-12-07T12:30:36;8.20;99.90
25300;DHT22;13241;51.208;4.432;2022-12-07T12:33:28;8.10;99.90
25300;DHT22;13241;51.208;4.432;2022-12-07T12:51:56;8.90;99.90
25300;DHT22;13241;51.208;4.432;2022-12-07T12:57:05;9.30;99.90
25300;DHT22;13241;51.208;4.432;2022-12-07T12:59:42;9.50;99.90
25300;DHT22;13241;51.208;4.432;2022-12-07T13:12:58;9.00;99.90
25300;DHT22;13241;51.208;4.432;2022-12-07T13:15:38;9.00;99.90
25300;DHT22;13241;51.208;4.432;2022-12-07T13:23:39;8.80;99.90
25300;DHT22;13241;51.208;4.432;2022-12-07T13:31:49;8.50;99.90
25300;DHT22;13241;51.208;4.432;2022-12-07T13:37:20;8.40;99.90
25300;DHT22;13241;51.208;4.432;2022-12-07T13:42:26;8.50;99.90
25300;DHT22;13241;51.208;4.432;2022-12-07T13:44:55;8.50;99.90
25300;DHT22;13241;51.208;4.432;2022-12-07T13:47:52;8.70;99.90
25300;DHT22;13241;51.208;4.432;2022-12-07T13:50:28;8.50;99.90
25300;DHT22;13241;51.208;4.432;2022-12-07T13:52:56;8.50;99.90
25300;DHT22;13241;51.208;4.432;2022-12-07T13:55:24;8.40;99.90
25300;DHT22;13241;51.208;4.432;2022-12-07T13:57:52;8.70;99.90
25300;DHT22;13241;51.208;4.432;2022-12-07T14:00:26;8.30;99.90
25300;DHT22;13241;51.208;4.432;2022-12-07T14:03:00;8.40;99.90
25300;DHT22;13241;51.208;4.432;2022-12-07T14:05:32;8.40;99.90
25300;DHT22;13241;51.208;4.432;2022-12-07T14:10:34;8.50;99.90
25300;DHT22;13241;51.208;4.432;2022-12-07T14:13:24;8.30;99.90
25300;DHT22;13241;51.208;4.432;2022-12-07T14:15:51;8.20;99.90
25300;DHT22;13241;51.208;4.432;2022-12-07T14:21:17;8.30;99.90
25300;DHT22;13241;51.208;4.432;2022-12-07T14:23:45;8.20;99.90
25300;DHT22;13241;51.208;4.432;2022-12-07T14:26:28;8.00;99.90
25300;DHT22;13241;51.208;4.432;2022-12-07T14:29:31;8.00;99.90
25300;DHT22;13241;51.208;4.432;2022-12-07T14:32:14;7.90;99.90
25300;DHT22;13241;51.208;4.432;2022-12-07T14:35:03;7.90;99.90
25300;DHT22;13241;51.208;4.432;2022-12-07T14:37:35;8.20;99.90
25300;DHT22;13241;51.208;4.432;2022-12-07T14:40:03;8.10;99.90
25300;DHT22;13241;51.208;4.432;2022-12-07T14:42:31;8.00;99.90
25300;DHT22;13241;51.208;4.432;2022-12-07T14:44:59;7.90;99.90
25300;DHT22;13241;51.208;4.432;2022-12-07T14:47:27;7.90;99.90
25300;DHT22;13241;51.208;4.432;2022-12-07T14:50:17;7.90;99.90
25300;DHT22;13241;51.208;4.432;2022-12-07T14:52:48;7.80;99.90
25300;DHT22;13241;51.208;4.432;2022-12-07T14:55:36;7.60;99.90
25300;DHT22;13241;51.208;4.432;2022-12-07T14:58:03;7.70;99.90
25300;DHT22;13241;51.208;4.432;2022-12-07T15:00:30;7.70;99.90
25300;DHT22;13241;51.208;4.432;2022-12-07T15:02:57;7.70;99.90
25300;DHT22;13241;51.208;4.432;2022-12-07T15:05:24;7.70;99.90
25300;DHT22;13241;51.208;4.432;2022-12-07T15:07:51;7.60;99.90
25300;DHT22;13241;51.208;4.432;2022-12-07T15:10:24;7.50;99.90
25300;DHT22;13241;51.208;4.432;2022-12-07T15:13:01;7.30;99.90
25300;DHT22;13241;51.208;4.432;2022-12-07T15:15:51;7.10;99.90
25300;DHT22;13241;51.208;4.432;2022-12-07T15:18:21;7.10;99.90
25300;DHT22;13241;51.208;4.432;2022-12-07T15:20:48;7.10;99.90
25300;DHT22;13241;51.208;4.432;2022-12-07T15:23:14;7.00;99.90
25300;DHT22;13241;51.208;4.432;2022-12-07T15:25:47;7.00;99.90
25300;DHT22;13241;51.208;4.432;2022-12-07T15:28:14;7.00;99.90
25300;DHT22;13241;51.208;4.432;2022-12-07T15:30:43;7.00;99.90
25300;DHT22;13241;51.208;4.432;2022-12-07T15:33:11;7.00;99.90
25300;DHT22;13241;51.208;4.432;2022-12-07T15:35:42;7.00;99.90
25300;DHT22;13241;51.208;4.432;2022-12-07T15:38:11;7.00;99.90
25300;DHT22;13241;51.208;4.432;2022-12-07T15:40:38;6.90;99.90
25300;DHT22;13241;51.208;4.432;2022-12-07T15:43:04;7.10;99.90
25300;DHT22;13241;51.208;4.432;2022-12-07T15:45:31;6.80;99.90
25300;DHT22;13241;51.208;4.432;2022-12-07T15:47:58;6.80;99.90
25300;DHT22;13241;51.208;4.432;2022-12-07T15:50:45;6.80;99.90
25300;DHT22;13241;51.208;4.432;2022-12-07T15:53:12;6.80;99.90
25300;DHT22;13241;51.208;4.432;2022-12-07T15:55:40;6.80;99.90
25300;DHT22;13241;51.208;4.432;2022-12-07T15:58:07;6.70;99.90
25300;DHT22;13241;51.208;4.432;2022-12-07T16:00:34;6.80;99.90
25300;DHT22;13241;51.208;4.432;2022-12-07T16:03:01;6.80;99.90
25300;DHT22;13241;51.208;4.432;2022-12-07T16:05:28;6.80;99.90
25300;DHT22;13241;51.208;4.432;2022-12-07T16:07:55;7.10;99.90
25300;DHT22;13241;51.208;4.432;2022-12-07T16:10:22;6.90;99.90
25300;DHT22;13241;51.208;4.432;2022-12-07T16:12:52;6.90;99.90
25300;DHT22;13241;51.208;4.432;2022-12-07T16:15:19;7.00;99.90
25300;DHT22;13241;51.208;4.432;2022-12-07T16:17:51;6.90;99.90
25300;DHT22;13241;51.208;4.432;2022-12-07T16:20:18;6.90;99.90
25300;DHT22;13241;51.208;4.432;2022-12-07T16:22:44;6.90;99.90
25300;DHT22;13241;51.208;4.432;2022-12-07T16:25:11;6.90;99.90
25300;DHT22;13241;51.208;4.432;2022-12-07T16:27:38;6.90;99.90
25300;DHT22;13241;51.208;4.432;2022-12-07T16:30:06;6.90;99.90
25300;DHT22;13241;51.208;4.432;2022-12-07T16:32:33;6.90;99.90
25300;DHT22;13241;51.208;4.432;2022-12-07T16:35:00;6.90;99.90
25300;DHT22;13241;51.208;4.432;2022-12-07T16:37:28;6.90;99.90
25300;DHT22;13241;51.208;4.432;2022-12-07T16:39:55;7.10;99.90
25300;DHT22;13241;51.208;4.432;2022-12-07T16:42:22;6.90;99.90
25300;DHT22;13241;51.208;4.432;2022-12-07T16:44:48;6.80;99.90
25300;DHT22;13241;51.208;4.432;2022-12-07T16:47:18;6.80;99.90
25300;DHT22;13241;51.208;4.432;2022-12-07T16:49:46;6.70;99.90
25300;DHT22;13241;51.208;4.432;2022-12-07T16:52:14;6.80;99.90
25300;DHT22;13241;51.208;4.432;2022-12-07T16:54:48;6.70;99.90
25300;DHT22;13241;51.208;4.432;2022-12-07T16:57:16;6.80;99.90
25300;DHT22;13241;51.208;4.432;2022-12-07T16:59:49;6.80;99.90
25300;DHT22;13241;51.208;4.432;2022-12-07T17:02:16;6.80;99.90
25300;DHT22;13241;51.208;4.432;2022-12-07T17:04:44;6.80;99.90
25300;DHT22;13241;51.208;4.432;2022-12-07T17:07:11;6.80;99.90
25300;DHT22;13241;51.208;4.432;2022-12-07T17:09:40;6.80;99.90
25300;DHT22;13241;51.208;4.432;2022-12-07T17:12:06;6.80;99.90
25300;DHT22;13241;51.208;4.432;2022-12-07T17:14:35;6.70;99.90
25300;DHT22;13241;51.208;4.432;2022-12-07T17:17:20;6.70;99.90
25300;DHT22;13241;51.208;4.432;2022-12-07T17:19:47;6.70;99.90
25300;DHT22;13241;51.208;4.432;2022-12-07T17:22:14;6.60;99.90
25300;DHT22;13241;51.208;4.432;2022-12-07T17:24:41;6.60;99.90
25300;DHT22;13241;51.208;4.432;2022-12-07T17:27:07;6.60;99.90
25300;DHT22;13241;51.208;4.432;2022-12-07T17:29:35;6.60;99.90
25300;DHT22;13241;51.208;4.432;2022-12-07T17:32:01;6.50;99.90
25300;DHT22;13241;51.208;4.432;2022-12-07T17:34:28;6.50;99.90
25300;DHT22;13241;51.208;4.432;2022-12-07T17:36:55;6.50;99.90
25300;DHT22;13241;51.208;4.432;2022-12-07T17:39:22;6.50;99.90
25300;DHT22;13241;51.208;4.432;2022-12-07T17:41:49;6.50;99.90
25300;DHT22;13241;51.208;4.432;2022-12-07T17:44:34;6.50;99.90
25300;DHT22;13241;51.208;4.432;2022-12-07T17:47:03;6.50;99.90
25300;DHT22;13241;51.208;4.432;2022-12-07T17:49:31;6.40;99.90
25300;DHT22;13241;51.208;4.432;2022-12-07T17:51:58;6.40;99.90
25300;DHT22;13241;51.208;4.432;2022-12-07T17:54:44;6.30;99.90
25300;DHT22;13241;51.208;4.432;2022-12-07T17:57:15;6.30;99.90
25300;DHT22;13241;51.208;4.432;2022-12-07T17:59:42;6.40;99.90
25300;DHT22;13241;51.208;4.432;2022-12-07T18:02:09;6.40;99.90
25300;DHT22;13241;51.208;4.432;2022-12-07T18:04:36;6.40;99.90
25300;DHT22;13241;51.208;4.432;2022-12-07T18:07:12;6.50;99.90
25300;DHT22;13241;51.208;4.432;2022-12-07T18:09:44;6.40;99.90
25300;DHT22;13241;51.208;4.432;2022-12-07T18:12:24;6.40;99.90
25300;DHT22;13241;51.208;4.432;2022-12-07T18:14:58;6.40;99.90
25300;DHT22;13241;51.208;4.432;2022-12-07T18:17:28;6.40;99.90